CheckWX is a tool to help pilots better visualize weather data.  It is not intended as a substitute for an official pre-flight weather briefing.

08:41:48 UTC

KCEF TAF
Westover ARB / Metropolitan Airport
Springfield/Chicopee, Massachusetts, USA
TAF KCEF 170200Z 1702/1808 20007KT 9999 FEW120 SCT210 QNH2994INS BECMG 1713/1714 24010G15KT 9999 BKN040 BKN130 OVC200 QNH2989INS BECMG 1716/1717 24010G15KT 9999 -SHRA BKN040 BKN130 OVC200 QNH2985INS TEMPO 1717/1721 26030G50KT 0800 +TSRA OVC040CB BECMG 1721/1722 34009KT 9999 -SHRA BKN040 OVC100 QNH2983INS BECMG 1800/1801 VRB06KT 9999 NSW BKN007 OVC012 QNH2985INS TX32/1719Z TN21/1710Z LAST NO AMDS AFT 1704 NEXT 1710

Jul-17@
02:00 UTC

Jul-17 @ 02:00 UTC

Jul-17@
13:00 UTC

Jul-17 @ 13:00 UTC

TAF KCEF 170200Z 1702/1808 20007KT 9999 FEW120 SCT210 QNH2994INS
Wind
  • 200° at 7 KTS
Cloud Levels
  • Few at 12,000' AGL
  • Scattered at 21,000' AGL

Jul-17@
13:00 UTC

Jul-17 @ 13:00 UTC

Jul-17@
16:00 UTC

Jul-17 @ 16:00 UTC

BECMG 1713/1714 24010G15KT 9999 BKN040 BKN130 OVC200 QNH2989INS

Becoming

Becoming Conditions expected by Wed, Jul 17, 2019 @ 14:00 UTC

Wind
  • 240° at 10 KTS
  • {Gusting to 15 KTS
Cloud Levels
  • Broken at 4,000' AGL
  • Broken at 13,000' AGL
  • Overcast at 20,000' AGL

Jul-17@
16:00 UTC

Jul-17 @ 16:00 UTC

Jul-17@
21:00 UTC

Jul-17 @ 21:00 UTC

BECMG 1716/1717 24010G15KT 9999 -SHRA BKN040 BKN130 OVC200 QNH2985INS

Becoming

Becoming Conditions expected by Wed, Jul 17, 2019 @ 17:00 UTC

Wind
  • 240° at 10 KTS
  • {Gusting to 15 KTS
Conditions
Light Rain
Cloud Levels
  • Broken at 4,000' AGL
  • Broken at 13,000' AGL
  • Overcast at 20,000' AGL

Jul-17@
17:00 UTC

Jul-17 @ 17:00 UTC

Jul-17@
21:00 UTC

Jul-17 @ 21:00 UTC

TEMPO 1717/1721 26030G50KT 0800 +TSRA OVC040CB

Temporary

Temporary Changes expected for less than half the time period

Wind
  • 260° at 30 KTS
  • {Gusting to 50 KTS
Conditions
Heavy Thunderstorm, Heavy Rain
Cloud Levels
  • Overcast at 4,000' AGL

Jul-17@
21:00 UTC

Jul-17 @ 21:00 UTC

Jul-18@
00:00 UTC

Jul-18 @ 00:00 UTC

BECMG 1721/1722 34009KT 9999 -SHRA BKN040 OVC100 QNH2983INS

Becoming

Becoming Conditions expected by Wed, Jul 17, 2019 @ 22:00 UTC

Wind
  • 340° at 9 KTS
Conditions
Light Rain
Cloud Levels
  • Broken at 4,000' AGL
  • Overcast at 10,000' AGL

Jul-18@
00:00 UTC

Jul-18 @ 00:00 UTC

Jul-18@
08:00 UTC

Jul-18 @ 08:00 UTC

BECMG 1800/1801 VRB06KT 9999 NSW BKN007 OVC012 QNH2985INS TX32/1719Z TN21/1710Z LAST NO AMDS AFT 1704 NEXT 1710

Becoming

Becoming Conditions expected by Thu, Jul 18, 2019 @ 01:00 UTC

Wind
  • Variable at 6 KTS
Conditions
No significant weather
Cloud Levels
  • Broken at 700' AGL
  • Overcast at 1,200' AGL